createdAt,value
2022-11-30T00:02:43.369Z,26.10
2022-11-30T00:05:28.909Z,26.30
2022-11-30T00:08:14.372Z,26.58
2022-11-30T00:11:00.092Z,26.90
2022-11-30T00:13:45.224Z,25.92
2022-11-30T00:16:30.931Z,26.05
2022-11-30T00:19:16.134Z,26.23
2022-11-30T00:22:01.833Z,27.98
2022-11-30T00:24:47.534Z,28.58
2022-11-30T00:27:33.880Z,27.27
2022-11-30T00:30:19.362Z,27.05
2022-11-30T00:33:04.643Z,28.63
2022-11-30T00:36:05.999Z,29.27
2022-11-30T00:38:52.115Z,28.13
2022-11-30T00:41:37.428Z,28.58
2022-11-30T00:44:23.320Z,29.20
2022-11-30T00:47:08.860Z,28.42
2022-11-30T00:49:54.494Z,28.85
2022-11-30T00:52:40.282Z,29.08
2022-11-30T00:55:26.171Z,27.90
2022-11-30T00:58:12.392Z,29.33
2022-11-30T01:00:58.097Z,28.48
2022-11-30T01:03:43.640Z,28.08
2022-11-30T01:06:29.198Z,28.15
2022-11-30T01:09:14.764Z,28.55
2022-11-30T01:12:00.477Z,27.58
2022-11-30T01:14:46.383Z,28.98
2022-11-30T01:17:32.012Z,27.95
2022-11-30T01:20:17.671Z,27.92
2022-11-30T01:23:03.208Z,29.55
2022-11-30T01:25:55.912Z,30.15
2022-11-30T01:28:44.088Z,28.83
2022-11-30T01:31:29.856Z,28.90
2022-11-30T01:34:15.279Z,29.40
2022-11-30T01:37:00.662Z,31.25
2022-11-30T01:39:46.208Z,29.42
2022-11-30T01:42:33.078Z,29.52
2022-11-30T01:45:19.089Z,29.98
2022-11-30T01:48:05.612Z,29.50
2022-11-30T01:50:50.898Z,29.63
2022-11-30T01:53:36.390Z,28.42
2022-11-30T01:56:21.824Z,30.75
2022-11-30T01:59:07.442Z,27.63
2022-11-30T02:01:53.944Z,28.25
2022-11-30T02:04:39.457Z,28.02
2022-11-30T02:07:25.227Z,27.95
2022-11-30T02:10:19.362Z,27.80
2022-11-30T02:13:04.664Z,26.27
2022-11-30T02:16:24.877Z,25.80
2022-11-30T02:19:16.361Z,25.42
2022-11-30T02:22:19.610Z,25.35
2022-11-30T02:25:28.935Z,25.58
2022-11-30T02:28:51.589Z,25.20
2022-11-30T02:31:50.991Z,24.17
2022-11-30T02:34:38.085Z,23.70
2022-11-30T02:37:25.788Z,24.15
2022-11-30T02:40:14.982Z,23.80
2022-11-30T02:43:04.529Z,24.75
2022-11-30T02:46:02.257Z,26.27
2022-11-30T02:49:00.610Z,25.83
2022-11-30T02:51:48.161Z,25.40
2022-11-30T02:54:34.724Z,26.90
2022-11-30T02:57:20.264Z,25.45
2022-11-30T03:00:08.143Z,26.40
2022-11-30T03:02:53.673Z,24.00
2022-11-30T03:05:39.148Z,23.33
2022-11-30T03:08:24.599Z,23.13
2022-11-30T03:11:09.924Z,22.75
2022-11-30T03:13:55.539Z,21.17
2022-11-30T03:16:41.080Z,23.60
2022-11-30T03:19:26.498Z,21.98
2022-11-30T03:22:12.306Z,21.15
2022-11-30T03:24:57.764Z,21.60
2022-11-30T03:27:43.365Z,20.15
2022-11-30T03:30:28.923Z,20.10
2022-11-30T03:33:14.604Z,20.08
2022-11-30T03:36:05.813Z,20.15
2022-11-30T03:38:51.204Z,19.48
2022-11-30T03:41:36.484Z,19.42
2022-11-30T03:44:22.334Z,19.65
2022-11-30T03:47:07.876Z,18.80
2022-11-30T03:49:53.377Z,18.65
2022-11-30T03:52:39.078Z,20.15
2022-11-30T03:55:24.640Z,17.83
2022-11-30T03:58:10.648Z,18.67
2022-11-30T04:01:04.844Z,16.52
2022-11-30T04:03:51.819Z,17.67
2022-11-30T04:06:37.211Z,18.20
2022-11-30T04:09:22.752Z,16.80
2022-11-30T04:12:08.133Z,16.73
2022-11-30T04:14:53.817Z,17.02
2022-11-30T04:17:39.280Z,16.35
2022-11-30T04:20:25.552Z,16.02
2022-11-30T04:23:11.941Z,16.42
2022-11-30T04:25:58.180Z,16.27
2022-11-30T04:28:43.698Z,15.82
2022-11-30T04:31:29.216Z,16.60
2022-11-30T04:34:14.589Z,16.65
2022-11-30T04:37:00.702Z,17.73
2022-11-30T04:39:46.660Z,17.08
2022-11-30T04:42:32.263Z,16.15
2022-11-30T04:45:17.836Z,17.52
2022-11-30T04:48:03.841Z,17.17
2022-11-30T04:50:49.419Z,18.00
2022-11-30T04:53:36.946Z,17.73
2022-11-30T04:56:22.402Z,17.15
2022-11-30T04:59:07.855Z,16.90
2022-11-30T05:01:54.464Z,18.70
2022-11-30T05:04:39.673Z,18.33
2022-11-30T05:07:25.668Z,16.55
2022-11-30T05:10:11.573Z,17.73
2022-11-30T05:12:57.326Z,16.88
2022-11-30T05:15:42.649Z,16.52
2022-11-30T05:18:29.685Z,16.98
2022-11-30T05:21:16.020Z,16.45
2022-11-30T05:24:01.459Z,16.70
2022-11-30T05:26:46.991Z,18.15
2022-11-30T05:29:35.262Z,15.77
2022-11-30T05:32:20.716Z,16.50
2022-11-30T05:35:06.397Z,14.82
2022-11-30T05:37:51.871Z,16.50
2022-11-30T05:40:37.567Z,15.27
2022-11-30T05:43:22.932Z,13.60
2022-11-30T05:46:09.917Z,15.15
2022-11-30T05:48:55.613Z,14.48
2022-11-30T05:51:41.215Z,15.02
2022-11-30T05:54:26.665Z,14.85
2022-11-30T05:57:12.196Z,13.98
2022-11-30T05:59:57.596Z,14.35
2022-11-30T06:02:43.092Z,14.95
2022-11-30T06:05:29.156Z,14.38
2022-11-30T06:08:14.919Z,14.25
2022-11-30T06:11:01.452Z,14.57
2022-11-30T06:13:47.205Z,14.30
2022-11-30T06:16:32.797Z,15.25
2022-11-30T06:19:18.081Z,14.52
2022-11-30T06:22:03.873Z,15.70
2022-11-30T06:24:49.536Z,14.20
2022-11-30T06:27:35.009Z,14.35
2022-11-30T06:30:21.948Z,14.30
2022-11-30T06:33:07.640Z,16.23
2022-11-30T06:35:53.140Z,14.73
2022-11-30T06:38:38.508Z,15.00
2022-11-30T06:41:24.415Z,14.57
2022-11-30T06:44:11.185Z,14.45
2022-11-30T06:46:56.610Z,14.70
2022-11-30T06:49:42.051Z,14.45
2022-11-30T06:52:27.654Z,15.02
2022-11-30T06:55:13.197Z,14.20
2022-11-30T06:58:11.467Z,14.88
2022-11-30T07:00:57.176Z,14.38
2022-11-30T07:03:42.760Z,13.90
2022-11-30T07:06:28.446Z,15.15
2022-11-30T07:09:14.488Z,13.75
2022-11-30T07:12:01.114Z,14.93
2022-11-30T07:14:46.869Z,14.05
2022-11-30T07:17:32.496Z,13.95
2022-11-30T07:20:18.323Z,13.60
2022-11-30T07:23:22.751Z,14.13
2022-11-30T07:26:09.377Z,13.57
2022-11-30T07:28:58.070Z,13.93
2022-11-30T07:31:43.273Z,13.45
2022-11-30T07:34:28.977Z,14.18
2022-11-30T07:37:14.158Z,14.00
2022-11-30T07:39:59.892Z,14.40
2022-11-30T07:42:45.601Z,13.80
2022-11-30T07:45:31.208Z,14.55
2022-11-30T07:48:16.718Z,14.35
2022-11-30T07:51:07.463Z,14.85
2022-11-30T07:53:55.308Z,14.73
2022-11-30T07:56:40.699Z,14.90
2022-11-30T07:59:26.499Z,13.18
2022-11-30T08:02:12.159Z,14.10
2022-11-30T08:04:58.811Z,13.85
2022-11-30T08:07:45.844Z,13.98
2022-11-30T08:10:31.868Z,13.18
2022-11-30T08:13:17.738Z,13.90
2022-11-30T08:16:08.317Z,14.00
2022-11-30T08:18:56.698Z,14.43
2022-11-30T08:21:41.968Z,13.50
2022-11-30T08:24:27.429Z,13.52
2022-11-30T08:27:12.926Z,14.10
2022-11-30T08:29:58.620Z,12.93
2022-11-30T08:32:44.318Z,14.10
2022-11-30T08:35:29.673Z,14.20
2022-11-30T08:38:15.256Z,15.68
2022-11-30T08:41:00.926Z,14.68
2022-11-30T08:43:47.262Z,15.65
2022-11-30T08:49:38.590Z,13.55
2022-11-30T08:52:24.348Z,15.13
2022-11-30T08:55:10.157Z,14.00
2022-11-30T08:57:56.016Z,14.55
2022-11-30T09:00:41.468Z,14.32
2022-11-30T09:03:26.850Z,14.48
2022-11-30T09:06:17.624Z,14.32
2022-11-30T09:09:03.347Z,13.32
2022-11-30T09:11:48.829Z,13.27
2022-11-30T09:14:34.276Z,12.85
2022-11-30T09:17:19.696Z,12.38
2022-11-30T09:20:06.117Z,12.55
2022-11-30T09:22:51.777Z,12.40
2022-11-30T09:25:37.040Z,12.23
2022-11-30T09:28:22.417Z,12.77
2022-11-30T09:31:13.649Z,12.57
2022-11-30T09:33:59.306Z,13.00
2022-11-30T09:36:44.648Z,12.48
2022-11-30T09:39:30.258Z,11.98
2022-11-30T09:42:45.684Z,12.45
2022-11-30T09:45:34.977Z,11.73
2022-11-30T09:48:54.474Z,12.15
2022-11-30T09:51:47.639Z,11.70
2022-11-30T09:54:39.924Z,12.25
2022-11-30T09:57:43.936Z,11.43
2022-11-30T10:00:29.798Z,11.00
2022-11-30T10:03:15.957Z,10.98
2022-11-30T10:06:10.938Z,10.55
2022-11-30T10:08:56.761Z,10.82
2022-11-30T10:11:52.823Z,11.77
2022-11-30T10:14:57.266Z,11.32
2022-11-30T10:17:55.625Z,11.23
2022-11-30T10:21:07.322Z,10.75
2022-11-30T10:24:02.173Z,11.02
2022-11-30T10:26:54.581Z,11.80
2022-11-30T10:29:43.186Z,11.48
2022-11-30T10:32:40.564Z,11.60
2022-11-30T10:35:37.705Z,10.45
2022-11-30T10:38:34.217Z,9.55
2022-11-30T10:41:34.989Z,11.45
2022-11-30T10:44:43.580Z,10.00
2022-11-30T10:47:34.013Z,10.15
2022-11-30T10:50:27.912Z,10.30
2022-11-30T10:53:14.161Z,9.60
2022-11-30T10:56:12.296Z,10.13
2022-11-30T10:59:02.489Z,9.10
2022-11-30T11:01:48.332Z,9.43
2022-11-30T11:04:33.644Z,10.68
2022-11-30T11:07:19.656Z,9.90
2022-11-30T11:10:05.731Z,11.32
2022-11-30T11:12:54.157Z,10.18
2022-11-30T11:15:39.772Z,9.02
2022-11-30T11:18:27.474Z,9.70
2022-11-30T11:21:12.930Z,10.02
2022-11-30T11:23:58.705Z,10.80
2022-11-30T11:26:51.093Z,10.55
2022-11-30T11:29:37.291Z,12.15
2022-11-30T11:32:27.213Z,11.25
2022-11-30T11:35:35.603Z,11.63
2022-11-30T11:38:21.322Z,11.10
2022-11-30T11:41:18.251Z,12.00
2022-11-30T11:44:09.816Z,12.20
2022-11-30T11:47:06.980Z,12.40
2022-11-30T11:50:03.790Z,12.15
2022-11-30T11:52:50.033Z,12.07
2022-11-30T11:55:36.492Z,11.82
2022-11-30T11:58:47.825Z,12.43
2022-11-30T12:01:58.738Z,13.82
2022-11-30T12:04:50.084Z,12.82
2022-11-30T12:07:42.744Z,12.23
2022-11-30T12:10:53.411Z,12.75
2022-11-30T12:13:42.071Z,12.25
2022-11-30T12:16:49.420Z,12.73
2022-11-30T12:19:57.073Z,11.32
2022-11-30T12:23:01.409Z,12.52
2022-11-30T12:25:52.511Z,12.07
2022-11-30T12:29:01.860Z,12.45
2022-11-30T12:32:03.416Z,12.55
2022-11-30T12:35:03.163Z,12.63
2022-11-30T12:38:14.452Z,12.00
2022-11-30T12:41:29.030Z,12.98
2022-11-30T12:44:42.681Z,13.30
2022-11-30T12:47:59.423Z,13.32
2022-11-30T12:51:07.972Z,13.73
2022-11-30T12:54:19.614Z,14.52
2022-11-30T12:57:13.071Z,13.48
2022-11-30T13:00:33.998Z,14.90
2022-11-30T13:03:51.074Z,14.25
2022-11-30T13:06:47.810Z,14.60
2022-11-30T13:09:41.643Z,13.45
2022-11-30T13:12:36.860Z,13.95
2022-11-30T13:15:29.475Z,13.77
2022-11-30T13:18:19.415Z,12.43
2022-11-30T13:21:22.056Z,14.13
2022-11-30T13:24:26.676Z,13.10
2022-11-30T13:27:15.288Z,12.00
2022-11-30T13:30:16.893Z,12.15
2022-11-30T13:33:40.521Z,12.45
2022-11-30T13:36:38.100Z,11.73
2022-11-30T13:39:26.193Z,12.27
2022-11-30T13:42:16.151Z,13.23
2022-11-30T13:45:13.924Z,12.40
2022-11-30T13:48:00.576Z,12.80
2022-11-30T13:50:49.158Z,12.15
2022-11-30T13:53:38.629Z,12.32
2022-11-30T13:56:34.266Z,12.13
2022-11-30T13:59:36.963Z,10.38
2022-11-30T14:02:32.369Z,10.77
2022-11-30T14:05:17.994Z,11.77
2022-11-30T14:08:03.692Z,11.90
2022-11-30T14:10:53.556Z,11.93
2022-11-30T14:13:39.309Z,11.55
2022-11-30T14:16:30.266Z,12.32
2022-11-30T14:19:16.070Z,11.65
2022-11-30T14:22:03.755Z,12.70
2022-11-30T14:24:50.060Z,12.45
2022-11-30T14:27:36.710Z,12.90
2022-11-30T14:30:23.826Z,12.23
2022-11-30T14:33:40.975Z,11.65
2022-11-30T14:36:37.923Z,12.35
2022-11-30T14:39:36.082Z,12.98
2022-11-30T14:42:27.754Z,13.52
2022-11-30T14:45:33.711Z,11.98
2022-11-30T14:48:19.345Z,12.80
2022-11-30T14:51:04.967Z,12.73
2022-11-30T14:54:08.788Z,12.90
2022-11-30T14:57:02.959Z,12.52
2022-11-30T14:59:51.811Z,11.15
2022-11-30T15:02:39.076Z,13.20
2022-11-30T15:05:28.557Z,12.07
2022-11-30T15:08:16.637Z,13.07
2022-11-30T15:11:12.260Z,12.80
2022-11-30T15:14:09.111Z,13.73
2022-11-30T15:16:57.337Z,12.35
2022-11-30T15:19:48.378Z,13.10
2022-11-30T15:22:35.329Z,13.25
2022-11-30T15:25:23.150Z,14.35
2022-11-30T15:28:12.572Z,14.35
2022-11-30T15:31:01.387Z,14.65
2022-11-30T15:33:48.782Z,14.20
2022-11-30T15:36:39.461Z,13.48
2022-11-30T15:39:26.923Z,11.38
2022-11-30T15:42:27.262Z,11.43
2022-11-30T15:45:23.397Z,11.55
2022-11-30T15:48:31.771Z,10.93
2022-11-30T15:51:26.499Z,11.00
2022-11-30T15:54:12.450Z,11.02
2022-11-30T15:56:58.228Z,10.40
2022-11-30T15:59:44.340Z,9.93
2022-11-30T16:02:36.237Z,10.27
2022-11-30T16:05:24.451Z,9.65
2022-11-30T16:08:18.287Z,10.20
2022-11-30T16:11:08.006Z,9.93
2022-11-30T16:13:53.765Z,10.48
2022-11-30T16:16:39.401Z,9.32
2022-11-30T16:19:25.083Z,10.50
2022-11-30T16:22:15.579Z,9.95
2022-11-30T16:25:01.111Z,9.95
2022-11-30T16:27:48.019Z,9.75
2022-11-30T16:30:33.834Z,9.90
2022-11-30T16:33:22.376Z,10.45
2022-11-30T16:36:12.869Z,9.90
2022-11-30T16:38:58.352Z,9.85
2022-11-30T16:41:45.326Z,9.68
2022-11-30T16:44:30.618Z,9.60
2022-11-30T16:47:16.139Z,9.73
2022-11-30T16:50:01.671Z,10.82
2022-11-30T16:52:47.449Z,10.73
2022-11-30T16:55:37.646Z,11.70
2022-11-30T16:58:23.290Z,10.13
2022-11-30T17:01:16.165Z,9.43
2022-11-30T17:04:16.121Z,9.75
2022-11-30T17:07:02.937Z,10.07
2022-11-30T17:09:49.048Z,10.57
2022-11-30T17:12:35.610Z,10.52
2022-11-30T17:15:23.920Z,9.20
2022-11-30T17:18:09.532Z,9.45
2022-11-30T17:20:55.593Z,9.55
2022-11-30T17:23:41.559Z,8.90
2022-11-30T17:26:27.010Z,9.07
2022-11-30T17:29:12.463Z,9.40
2022-11-30T17:31:57.973Z,9.40
2022-11-30T17:34:43.495Z,8.48
2022-11-30T17:37:29.012Z,9.45
2022-11-30T17:40:16.249Z,7.95
2022-11-30T17:43:01.693Z,8.25
2022-11-30T17:45:47.269Z,7.82
2022-11-30T17:48:32.839Z,7.47
2022-11-30T17:51:18.284Z,7.70
2022-11-30T17:54:04.067Z,6.57
2022-11-30T17:56:49.730Z,6.55
2022-11-30T17:59:35.153Z,6.50
2022-11-30T18:02:20.697Z,6.95
2022-11-30T18:05:06.747Z,7.40
2022-11-30T18:07:52.072Z,6.95
2022-11-30T18:10:41.118Z,7.00
2022-11-30T18:13:29.663Z,7.28
2022-11-30T18:16:18.319Z,7.70
2022-11-30T18:19:11.863Z,7.88
2022-11-30T18:21:57.636Z,7.43
2022-11-30T18:24:43.333Z,7.22
2022-11-30T18:27:28.754Z,7.47
2022-11-30T18:30:14.571Z,7.70
2022-11-30T18:33:01.269Z,7.93
2022-11-30T18:35:46.738Z,8.73
2022-11-30T18:38:37.243Z,7.72
2022-11-30T18:41:26.207Z,7.28
2022-11-30T18:44:12.236Z,7.95
2022-11-30T18:46:57.687Z,8.02
2022-11-30T18:49:43.003Z,8.13
2022-11-30T18:52:28.453Z,8.55
2022-11-30T18:55:13.981Z,9.23
2022-11-30T18:58:01.180Z,8.45
2022-11-30T19:00:46.996Z,9.70
2022-11-30T19:03:32.629Z,8.57
2022-11-30T19:06:18.344Z,8.85
2022-11-30T19:09:13.087Z,8.65
2022-11-30T19:12:00.149Z,8.65
2022-11-30T19:14:46.128Z,9.60
2022-11-30T19:17:32.529Z,8.68
2022-11-30T19:20:18.920Z,9.60
2022-11-30T19:23:04.600Z,9.75
2022-11-30T19:25:50.315Z,9.30
2022-11-30T19:28:37.688Z,9.82
2022-11-30T19:31:24.095Z,8.88
2022-11-30T19:34:13.097Z,8.82
2022-11-30T19:36:58.939Z,9.05
2022-11-30T19:39:44.537Z,8.95
2022-11-30T19:42:31.330Z,12.18
2022-11-30T19:45:17.378Z,8.85
2022-11-30T19:48:03.218Z,9.77
2022-11-30T19:50:49.109Z,9.40
2022-11-30T19:53:36.160Z,9.57
2022-11-30T19:56:23.318Z,8.65
2022-11-30T19:59:09.516Z,9.80
2022-11-30T20:01:55.406Z,10.27
2022-11-30T20:04:40.928Z,10.05
2022-11-30T20:07:26.761Z,11.05
2022-11-30T20:10:15.681Z,9.00
2022-11-30T20:13:01.381Z,10.32
2022-11-30T20:15:46.936Z,10.93
2022-11-30T20:18:32.594Z,10.23
2022-11-30T20:21:23.608Z,10.45
2022-11-30T20:24:11.792Z,10.18
2022-11-30T20:26:57.528Z,9.18
2022-11-30T20:29:43.234Z,9.32
2022-11-30T20:32:29.193Z,10.75
2022-11-30T20:35:14.692Z,11.13
2022-11-30T20:38:00.563Z,11.70
2022-11-30T20:40:49.134Z,11.27
2022-11-30T20:43:35.089Z,11.68
2022-11-30T20:46:32.316Z,12.30
2022-11-30T20:49:21.255Z,11.32
2022-11-30T20:52:06.895Z,12.02
2022-11-30T20:54:52.430Z,11.18
2022-11-30T20:57:37.985Z,12.13
2022-11-30T21:00:23.993Z,11.80
2022-11-30T21:03:09.684Z,12.43
2022-11-30T21:05:55.157Z,11.93
2022-11-30T21:08:41.327Z,11.73
2022-11-30T21:11:28.277Z,11.95
2022-11-30T21:14:14.857Z,12.23
2022-11-30T21:17:00.811Z,11.98
2022-11-30T21:19:46.699Z,12.60
2022-11-30T21:22:32.316Z,13.65
2022-11-30T21:25:18.011Z,11.95
2022-11-30T21:28:03.772Z,12.32
2022-11-30T21:30:49.289Z,12.77
2022-11-30T21:33:34.778Z,13.30
2022-11-30T21:36:20.465Z,12.88
2022-11-30T21:39:09.303Z,13.13
2022-11-30T21:41:54.984Z,13.05
2022-11-30T21:44:40.458Z,13.25
2022-11-30T21:47:25.813Z,12.02
2022-11-30T21:50:11.599Z,12.15
2022-11-30T21:52:57.315Z,12.52
2022-11-30T21:55:42.645Z,11.80
2022-11-30T21:58:30.848Z,12.32
2022-11-30T22:01:21.749Z,12.80
2022-11-30T22:04:09.383Z,11.27
2022-11-30T22:06:55.185Z,12.70
2022-11-30T22:09:40.793Z,12.57
2022-11-30T22:12:26.252Z,12.50
2022-11-30T22:15:11.762Z,12.50
2022-11-30T22:17:57.356Z,11.73
2022-11-30T22:20:42.723Z,11.80
2022-11-30T22:23:28.308Z,11.75
2022-11-30T22:26:18.091Z,11.25
2022-11-30T22:29:18.448Z,11.50
2022-11-30T22:32:04.139Z,9.90
2022-11-30T22:34:49.534Z,10.25
2022-11-30T22:37:35.107Z,11.40
2022-11-30T22:40:20.588Z,12.57
2022-11-30T22:43:06.155Z,11.80
2022-11-30T22:45:51.639Z,12.20
2022-11-30T22:48:37.526Z,12.52
2022-11-30T22:51:25.355Z,11.80
2022-11-30T22:54:11.650Z,12.98
2022-11-30T22:56:57.306Z,12.05
2022-11-30T22:59:42.852Z,12.70
2022-11-30T23:02:28.398Z,11.65
2022-11-30T23:05:13.830Z,12.98
2022-11-30T23:07:59.434Z,13.25
2022-11-30T23:10:45.109Z,12.13
2022-11-30T23:13:31.386Z,13.82
2022-11-30T23:16:18.022Z,13.20
2022-11-30T23:19:04.447Z,12.88
2022-11-30T23:21:50.340Z,14.68
2022-11-30T23:24:35.958Z,13.55
2022-11-30T23:27:21.476Z,13.60
2022-11-30T23:30:07.652Z,13.18
2022-11-30T23:32:57.111Z,13.85
2022-11-30T23:35:43.796Z,13.63
2022-11-30T23:38:29.473Z,13.88
2022-11-30T23:41:15.889Z,13.20
2022-11-30T23:44:02.102Z,13.77
2022-11-30T23:46:48.157Z,14.30
2022-11-30T23:49:33.851Z,14.10
2022-11-30T23:52:19.303Z,14.00
2022-11-30T23:55:05.326Z,14.80
2022-11-30T23:57:50.895Z,14.00
